EST,Max TemperatureF,Mean TemperatureF,Min TemperatureF,Max Dew PointF,MeanDew PointF,Min DewpointF,Max Humidity, Mean Humidity, Min Humidity, Max Sea Level PressureIn, Mean Sea Level PressureIn, Min Sea Level PressureIn, Max VisibilityMiles, Mean VisibilityMiles, Min VisibilityMiles, Max Wind SpeedMPH, Mean Wind SpeedMPH, Max Gust SpeedMPH,PrecipitationIn, CloudCover, Events, WindDirDegrees
2012-12-1,81,68,54,60,56,51,94,75,44,30.26,30.21,30.17,10,10,10,15,7,22,0.01,1,,51
2012-12-2,82,71,60,64,60,58,93,76,44,30.28,30.23,30.19,10,10,8,15,7,22,0.00,2,,60
2012-12-3,80,68,57,65,57,53,97,77,40,30.28,30.23,30.19,10,10,9,14,5,18,0.01,3,,68
2012-12-4,80,68,55,59,56,52,97,73,39,30.30,30.23,30.19,10,10,10,16,5,20,0.00,3,,64
2012-12-5,79,66,54,63,59,53,100,85,50,30.20,30.11,30.07,10,7,0,9,3,,0.00,3,Fog,61
2012-12-6,81,69,57,64,61,57,97,78,50,30.06,30.00,29.94,10,10,10,10,6,,0.00,3,,67
2012-12-7,82,70,59,66,63,58,100,84,54,30.03,29.98,29.93,10,6,0,9,4,,0.01,3,Fog,49
2012-12-8,84,73,62,68,65,61,100,88,53,30.07,30.03,29.98,10,6,0,13,3,,0.00,4,Fog,87
2012-12-9,84,73,62,68,64,61,100,88,51,30.12,30.06,30.03,10,5,0,8,1,,0.01,3,Fog,294
2012-12-10,86,74,62,73,68,61,100,87,61,30.04,29.98,29.90,10,7,0,18,4,25,0.11,4,Fog-Rain,179
2012-12-11,80,74,69,72,71,69,100,91,74,30.06,29.99,29.94,10,9,1,15,8,22,0.85,5,Rain,197
2012-12-12,80,74,69,73,71,66,100,92,79,30.12,30.07,30.02,10,7,0,26,9,41,0.39,6,Fog-Rain,220
2012-12-13,73,66,59,73,62,55,100,82,57,30.19,30.14,30.07,10,9,0,16,10,23,0.01,6,Fog-Rain,6
2012-12-14,77,67,57,61,58,54,93,81,56,30.22,30.16,30.10,10,10,5,15,11,22,0.00,4,,31
2012-12-15,80,68,57,64,60,56,97,80,50,30.16,30.10,30.06,10,9,4,9,5,,0.00,3,,71
2012-12-16,82,70,57,66,61,57,100,82,49,30.08,30.03,29.98,10,8,2,10,4,,0.01,1,,94
2012-12-17,81,70,60,68,65,60,100,90,56,30.01,29.97,29.93,10,6,0,16,4,20,0.00,2,Fog,185
2012-12-18,82,72,62,72,66,59,100,87,60,30.06,29.98,29.93,10,6,0,16,5,22,0.01,1,Fog,241
2012-12-19,79,64,48,57,51,48,100,77,35,30.15,30.09,30.06,10,8,0,7,2,,0.01,0,Fog,28
2012-12-20,82,68,54,68,62,50,100,78,46,30.12,30.05,29.99,10,10,3,16,7,23,0.00,1,,173
2012-12-21,73,60,46,70,51,33,94,68,29,30.25,30.11,29.99,10,10,2,20,13,26,0.15,3,Rain-Thunderstorm,317
2012-12-22,66,52,39,40,32,20,83,52,17,30.34,30.27,30.23,10,10,10,14,8,18,0.00,0,,355
2012-12-23,71,52,32,52,41,30,93,68,34,30.29,30.23,30.18,10,10,10,7,3,,0.00,0,,48
2012-12-24,73,60,48,56,51,43,93,74,50,30.17,30.10,30.01,10,10,10,10,2,,0.00,0,,164
2012-12-25,79,66,53,60,56,52,97,76,42,30.06,30.00,29.94,10,10,9,14,4,16,0.00,0,,148
2012-12-26,80,68,57,70,62,52,93,80,69,30.04,29.93,29.85,10,9,2,24,11,37,0.05,5,Rain,270
2012-12-27,68,57,46,50,46,41,93,73,39,30.12,30.08,30.04,10,10,10,9,5,,0.00,0,,357
2012-12-28,75,58,42,65,56,40,97,85,57,30.10,30.04,29.98,10,9,5,10,5,,0.25,5,Rain-Thunderstorm,84
2012-12-29,78,68,55,72,66,50,100,85,66,30.19,30.02,29.94,10,10,6,17,11,26,0.00,5,,237
2012-12-30,61,52,42,49,41,35,86,69,41,30.36,30.30,30.19,10,10,10,17,11,23,0.00,0,,32
2012-12-31,77,60,44,57,50,42,97,74,45,30.35,30.28,30.20,10,9,3,16,6,22,0.00,1,,76